Time;durP1;ratioP1;P1;durP2;ratioP2;P2;SDS_P1;SDS_P2;PMS_P1;PMS_P2;Temp;Humidity;BMP_temperature;BMP_pressure;BME280_temperature;BME280_humidity;BME280_pressure;Samples;Min_cycle;Max_cycle;Signal;HPM_P1;HPM_P2
2021/11/28 00:02:00;;;;;;;3.65;1.20;;;;;;;10.33;53.93;99386.88;4157402;28;20113;-52
2021/11/28 00:04:02;;;;;;;;;;;;;;;10.32;53.85;99388.66;4158040;28;20172;-48
2021/11/28 00:06:17;;;;;;;4.22;1.00;;;;;;;10.32;53.93;99388.66;4157781;28;20036;-51
2021/11/28 00:08:58;;;;;;;2.92;0.90;;;;;;;10.29;54.16;99380.09;4157354;28;20042;-51
2021/11/28 00:13:12;;;;;;;4.20;0.98;;;;;;;10.30;53.78;99387.88;4157142;28;20048;-54
2021/11/28 00:15:17;;;;;;;3.15;1.02;;;;;;;10.30;53.85;99384.41;4157122;28;20121;-54
2021/11/28 00:17:19;;;;;;;6.18;1.02;;;;;;;10.25;53.92;99376.78;4157566;28;20072;-53
2021/11/28 00:19:21;;;;;;;4.63;1.00;;;;;;;10.23;53.94;99378.66;4157179;28;20049;-52
2021/11/28 00:21:23;;;;;;;2.58;0.90;;;;;;;10.25;54.13;99384.66;4157213;28;20433;-52
2021/11/28 00:23:25;;;;;;;;;;;;;;;10.24;54.08;99380.34;4157618;28;20361;-54
2021/11/28 00:25:27;;;;;;;3.72;0.98;;;;;;;10.22;54.16;99384.84;4157269;28;19917;-53
2021/11/28 00:27:29;;;;;;;3.70;0.90;;;;;;;10.22;54.06;99385.69;4157165;28;20064;-50
2021/11/28 00:29:32;;;;;;;2.63;0.90;;;;;;;10.23;54.21;99386.53;4157261;28;20273;-54
2021/11/28 00:31:34;;;;;;;2.67;0.80;;;;;;;10.21;53.94;99378.75;4157325;28;20103;-52
2021/11/28 00:33:36;;;;;;;4.00;0.88;;;;;;;10.20;54.00;99389.34;4156184;28;20101;-52
2021/11/28 00:35:39;;;;;;;4.30;1.10;;;;;;;10.12;54.19;99362.63;4157287;28;20095;-53
2021/11/28 00:37:41;;;;;;;2.08;0.88;;;;;;;10.13;54.29;99380.09;4157376;28;20056;-52
2021/11/28 00:39:45;;;;;;;3.85;1.10;;;;;;;10.16;54.24;99372.91;4156871;28;20049;-52
2021/11/28 00:41:47;;;;;;;4.65;1.00;;;;;;;10.16;54.32;99382.56;4157073;28;20099;-55
2021/11/28 00:44:03;;;;;;;3.88;1.50;;;;;;;10.17;54.03;99382.47;4156978;28;20097;-52
2021/11/28 00:46:05;;;;;;;5.53;0.95;;;;;;;10.15;54.24;99378.25;4157061;28;20101;-54
2021/11/28 00:48:08;;;;;;;3.20;1.00;;;;;;;10.16;54.19;99380.78;4157034;28;20624;-52
2021/11/28 00:52:13;;;;;;;4.68;0.95;;;;;;;10.14;54.30;99384.44;4156986;28;20056;-54
2021/11/28 00:54:16;;;;;;;5.40;1.05;;;;;;;10.15;54.22;99391.38;4156715;28;20095;-52
2021/11/28 00:56:19;;;;;;;3.55;0.90;;;;;;;10.10;54.05;99388.13;4156871;28;20109;-52
2021/11/28 00:58:21;;;;;;;3.97;0.82;;;;;;;10.14;54.30;99397.56;4156789;28;20104;-54
2021/11/28 01:00:23;;;;;;;2.72;0.65;;;;;;;10.12;54.08;99387.16;4156493;28;20105;-55
2021/11/28 01:02:25;;;;;;;4.18;0.80;;;;;;;10.14;54.04;99394.94;4156680;28;20118;-55
2021/11/28 01:04:28;;;;;;;3.80;0.85;;;;;;;10.12;54.23;99391.53;4156768;28;20053;-56
2021/11/28 01:06:30;;;;;;;1.85;0.77;;;;;;;10.12;54.23;99400.28;4156596;28;20298;-54
2021/11/28 01:08:32;;;;;;;3.47;1.00;;;;;;;10.03;54.19;99383.22;4156901;28;20269;-50
2021/11/28 01:10:34;;;;;;;;;;;;;;;10.11;54.37;99401.22;4157052;28;20294;-51
2021/11/28 01:12:37;;;;;;;3.58;0.98;;;;;;;10.10;54.31;99404.75;4156723;28;19989;-53
2021/11/28 01:14:40;;;;;;;2.40;0.70;;;;;;;10.04;54.33;99403.31;4156144;28;20124;-51
2021/11/28 01:16:44;;;;;;;2.03;0.68;;;;;;;9.84;54.58;99364.16;4156561;28;20052;-52
2021/11/28 01:18:48;;;;;;;2.20;0.70;;;;;;;10.11;53.95;99422.22;4156631;28;20503;-51
2021/11/28 01:20:50;;;;;;;3.72;0.85;;;;;;;10.05;54.29;99410.25;4156173;28;20042;-53
2021/11/28 01:22:52;;;;;;;2.03;0.75;;;;;;;10.03;54.27;99416.53;4156339;28;20049;-53
2021/11/28 01:24:54;;;;;;;3.30;0.80;;;;;;;10.11;54.28;99429.25;4156265;28;20112;-53
2021/11/28 01:26:58;;;;;;;3.25;0.80;;;;;;;10.11;54.08;99426.63;4156213;28;20049;-52
2021/11/28 01:29:00;;;;;;;3.67;0.90;;;;;;;10.09;53.98;99431.97;4156456;28;20054;-53
2021/11/28 01:31:02;;;;;;;3.03;0.98;;;;;;;10.03;54.02;99420.00;4156096;28;20046;-54
2021/11/28 01:33:04;;;;;;;3.30;0.80;;;;;;;10.10;54.17;99438.91;4156128;28;20277;-52
2021/11/28 01:35:09;;;;;;;4.53;0.80;;;;;;;10.09;54.11;99442.47;4156232;28;20052;-51
2021/11/28 01:37:11;;;;;;;3.00;0.73;;;;;;;10.02;54.20;99426.19;4152540;28;20101;-50
2021/11/28 01:39:13;;;;;;;2.92;0.80;;;;;;;10.03;54.23;99427.03;4156150;28;20113;-51
2021/11/28 01:41:19;;;;;;;3.40;0.95;;;;;;;10.08;54.06;99435.50;4155797;28;20061;-54
2021/11/28 01:43:22;;;;;;;3.38;0.85;;;;;;;10.09;54.15;99454.78;4156005;28;20056;-52
2021/11/28 01:45:27;;;;;;;2.63;0.80;;;;;;;10.05;54.36;99448.84;4155913;28;20145;-52
2021/11/28 01:47:29;;;;;;;3.00;0.73;;;;;;;10.04;54.11;99449.75;4155880;28;20087;-52
2021/11/28 01:49:33;;;;;;;2.33;0.70;;;;;;;10.07;54.05;99458.31;4156155;28;20056;-54
2021/11/28 01:51:37;;;;;;;3.00;0.90;;;;;;;10.00;54.20;99442.97;4155794;28;20049;-53
2021/11/28 01:53:40;;;;;;;4.88;1.15;;;;;;;10.05;54.36;99454.94;4156057;28;20104;-50
2021/11/28 01:55:42;;;;;;;4.20;0.80;;;;;;;9.89;53.97;99419.91;4155813;28;20050;-53
2021/11/28 01:57:44;;;;;;;;;;;;;;;10.05;54.20;99451.47;4155116;28;20294;-51
2021/11/28 01:59:46;;;;;;;2.13;0.60;;;;;;;10.05;54.07;99457.56;4156038;28;19945;-53
2021/11/28 02:01:49;;;;;;;;;;;;;;;10.05;54.46;99462.81;4156154;28;20054;-51
2021/11/28 02:03:51;;;;;;;;;;;;;;;10.04;54.27;99465.53;4156187;28;19980;-53
2021/11/28 02:05:57;;;;;;;3.30;0.90;;;;;;;10.03;54.06;99471.69;4155731;28;19924;-52
2021/11/28 02:07:59;;;;;;;2.97;0.80;;;;;;;9.98;53.98;99464.06;4155513;28;20045;-51
2021/11/28 02:10:02;;;;;;;;;;;;;;;10.02;54.12;99476.09;4156154;28;20045;-50
2021/11/28 02:12:06;;;;;;;2.60;0.68;;;;;;;10.03;54.19;99476.94;4155634;28;20157;-53
2021/11/28 02:14:08;;;;;;;2.30;0.52;;;;;;;10.02;54.41;99478.72;4155520;28;20111;-51
2021/11/28 02:16:12;;;;;;;3.20;0.80;;;;;;;10.02;54.18;99488.38;4155802;28;20065;-54
2021/11/28 02:18:14;;;;;;;2.67;0.98;;;;;;;10.01;53.99;99487.56;4155454;28;20053;-52
2021/11/28 02:20:17;;;;;;;;;;;;;;;10.01;54.20;99500.69;4155919;28;20048;-52
2021/11/28 02:22:19;;;;;;;3.50;0.93;;;;;;;10.00;54.54;99484.97;4155388;28;19980;-52
2021/11/28 02:24:22;;;;;;;2.70;0.60;;;;;;;10.00;54.22;99482.34;4155486;28;20065;-50
2021/11/28 02:26:27;;;;;;;5.50;0.93;;;;;;;9.98;54.41;99487.69;4155648;28;20105;-51
2021/11/28 02:28:31;;;;;;;3.55;0.60;;;;;;;9.98;54.09;99495.56;4155436;28;20116;-54
2021/11/28 02:30:33;;;;;;;3.33;0.75;;;;;;;9.99;54.35;99486.78;4155363;28;20053;-53
2021/11/28 02:32:35;;;;;;;;;;;;;;;9.98;54.31;99490.31;4155605;28;20105;-53
2021/11/28 02:34:38;;;;;;;2.38;0.70;;;;;;;9.94;54.17;99477.44;4155580;28;20201;-54
2021/11/28 02:36:41;;;;;;;2.90;0.88;;;;;;;9.98;53.98;99490.31;4155377;28;20072;-50
2021/11/28 02:38:43;;;;;;;4.00;0.90;;;;;;;9.79;54.36;99456.31;4155428;28;20299;-54
2021/11/28 02:40:45;;;;;;;;;;;;;;;9.97;54.15;99491.25;4155916;28;20121;-54
2021/11/28 02:42:50;;;;;;;3.13;0.57;;;;;;;9.77;54.18;99465.19;4155372;28;20148;-49
2021/11/28 02:44:53;;;;;;;2.30;0.70;;;;;;;9.92;54.28;99480.16;4144586;28;20278;-55
2021/11/28 02:46:55;;;;;;;4.32;0.68;;;;;;;9.77;54.08;99460.81;4155462;28;20052;-50
2021/11/28 02:48:58;;;;;;;3.20;0.90;;;;;;;9.98;54.09;99486.88;4155259;28;20068;-49
2021/11/28 02:51:00;;;;;;;;;;;;;;;9.97;54.31;99485.16;4155628;28;20099;-52
2021/11/28 02:53:05;;;;;;;1.80;0.60;;;;;;;9.97;54.33;99485.16;4155330;28;20012;-53
2021/11/28 02:55:08;;;;;;;2.40;0.60;;;;;;;9.97;54.05;99488.63;4155350;28;20097;-53
2021/11/28 02:57:10;;;;;;;4.70;0.80;;;;;;;9.97;54.25;99490.41;4157587;28;20050;-49
2021/11/28 02:59:14;;;;;;;2.45;0.65;;;;;;;9.96;53.90;99486.91;4158343;28;20046;-52
2021/11/28 03:01:19;;;;;;;2.97;0.63;;;;;;;9.87;54.21;99475.13;4158523;28;20111;-50
2021/11/28 03:03:22;;;;;;;3.92;1.00;;;;;;;9.97;54.14;99493.88;4158535;28;20046;-52
2021/11/28 03:05:24;;;;;;;;;;;;;;;9.97;54.20;99496.50;4158891;28;20414;-52
2021/11/28 03:07:26;;;;;;;2.63;0.70;;;;;;;9.88;54.22;99492.59;4158606;28;19992;-51
2021/11/28 03:09:28;;;;;;;3.33;0.70;;;;;;;9.95;53.96;99487.00;4158446;28;20056;-51
2021/11/28 03:11:31;;;;;;;2.55;0.65;;;;;;;9.93;54.23;99484.47;4158333;28;20107;-52
2021/11/28 03:13:36;;;;;;;4.40;0.73;;;;;;;9.96;54.35;99497.44;4157968;28;20414;-50
2021/11/28 03:15:38;;;;;;;3.55;0.70;;;;;;;9.96;54.20;99483.47;4158254;28;20340;-51
2021/11/28 03:17:41;;;;;;;4.43;0.70;;;;;;;9.94;54.42;99490.56;4158293;28;20120;-52
2021/11/28 03:19:43;;;;;;;3.03;0.60;;;;;;;9.87;54.06;99474.28;4158301;28;20046;-48
2021/11/28 03:21:45;;;;;;;2.67;0.60;;;;;;;9.96;54.23;99493.97;4158026;28;20073;-52
2021/11/28 03:23:49;;;;;;;3.40;0.70;;;;;;;9.93;54.03;99496.75;4158110;28;20088;-50
2021/11/28 03:26:05;;;;;;;3.85;0.80;;;;;;;9.95;54.08;99500.13;4158072;28;20294;-50
2021/11/28 03:28:16;;;;;;;2.78;0.70;;;;;;;9.94;54.08;99495.81;4158309;28;20050;-51
2021/11/28 03:30:22;;;;;;;3.08;0.55;;;;;;;9.92;54.05;99495.91;4157982;28;20237;-51
2021/11/28 03:32:24;;;;;;;3.13;0.77;;;;;;;9.92;54.20;99498.53;4158051;28;20058;-52
2021/11/28 03:34:26;;;;;;;2.58;0.70;;;;;;;9.81;54.19;99485.97;4157910;28;20052;-54
2021/11/28 03:36:29;;;;;;;2.08;0.60;;;;;;;9.80;53.98;99489.50;4158015;28;20108;-49
2021/11/28 03:38:32;;;;;;;3.60;0.82;;;;;;;9.93;54.04;99507.25;4158202;28;20049;-52
2021/11/28 03:40:36;;;;;;;4.53;0.70;;;;;;;9.93;54.12;99512.50;4157835;28;20049;-51
2021/11/28 03:42:39;;;;;;;3.33;0.90;;;;;;;9.91;54.12;99517.84;4158047;28;20064;-52
2021/11/28 03:44:41;;;;;;;1.60;0.50;;;;;;;9.85;54.24;99505.88;4157900;28;20076;-50
2021/11/28 03:46:43;;;;;;;3.55;0.80;;;;;;;9.90;54.17;99518.75;4157733;28;20045;-54
2021/11/28 03:48:46;;;;;;;4.18;0.85;;;;;;;9.89;54.08;99512.69;4158021;28;20045;-50
2021/11/28 03:50:48;;;;;;;4.15;0.50;;;;;;;9.88;54.52;99518.03;4157708;28;20064;-51
2021/11/28 03:52:50;;;;;;;1.85;0.63;;;;;;;9.88;54.30;99518.03;4157930;28;20135;-50
2021/11/28 03:54:52;;;;;;;3.45;0.57;;;;;;;9.88;54.23;99524.09;4157452;28;20121;-53
2021/11/28 03:56:55;;;;;;;2.05;0.65;;;;;;;9.85;54.19;99513.75;4157940;28;20319;-55
2021/11/28 03:58:57;;;;;;;2.50;0.70;;;;;;;9.71;54.06;99496.09;4157635;28;20045;-53
2021/11/28 04:01:02;;;;;;;3.15;0.60;;;;;;;9.88;54.06;99523.28;4157356;28;20045;-54
2021/11/28 04:03:07;;;;;;;2.22;0.75;;;;;;;9.87;54.35;99527.66;4157814;28;20294;-54
2021/11/28 04:05:10;;;;;;;1.80;0.60;;;;;;;9.84;54.05;99521.72;4157603;28;20073;-51
2021/11/28 04:07:12;;;;;;;1.75;0.52;;;;;;;9.81;54.21;99524.50;4157511;28;20394;-52
2021/11/28 04:09:15;;;;;;;2.47;0.60;;;;;;;9.85;53.99;99520.78;4157492;28;20056;-54
2021/11/28 04:11:17;;;;;;;;;;;;;;;9.87;54.23;99529.44;4157773;28;20108;-51
2021/11/28 04:13:19;;;;;;;2.53;0.60;;;;;;;9.85;53.92;99526.88;4157634;28;19924;-51
2021/11/28 04:15:21;;;;;;;2.53;0.68;;;;;;;9.84;54.17;99527.84;4140949;28;20066;-55
2021/11/28 04:17:24;;;;;;;1.80;0.52;;;;;;;9.82;54.32;99521.81;4141103;28;20073;-53
2021/11/28 04:19:26;;;;;;;2.38;0.60;;;;;;;9.84;54.37;99526.97;4141370;28;20122;-48
2021/11/28 04:21:30;;;;;;;2.35;0.60;;;;;;;9.84;54.35;99532.22;4140666;28;20052;-51
2021/11/28 04:23:32;;;;;;;1.90;0.50;;;;;;;9.84;54.05;99527.84;4141189;28;20104;-54
2021/11/28 04:25:34;;;;;;;1.10;0.45;;;;;;;9.83;54.02;99530.50;4140988;28;20056;-54
2021/11/28 04:27:36;;;;;;;4.13;0.60;;;;;;;9.81;54.33;99530.59;4141019;28;20066;-49
2021/11/28 04:29:38;;;;;;;2.03;0.60;;;;;;;9.74;54.33;99516.94;4141028;28;20112;-50
2021/11/28 04:31:40;;;;;;;2.80;0.95;;;;;;;9.81;54.08;99524.50;4141011;28;20113;-48
2021/11/28 04:33:42;;;;;;;2.80;0.50;;;;;;;9.83;54.18;99541.00;4140980;28;20096;-51
2021/11/28 04:35:45;;;;;;;1.80;0.52;;;;;;;9.83;54.02;99541.00;4141011;28;20144;-53
2021/11/28 04:37:47;;;;;;;;;;;;;;;9.82;54.31;99537.56;4141268;28;20050;-50
2021/11/28 04:39:49;;;;;;;2.53;0.60;;;;;;;9.82;53.99;99539.31;4140857;28;20148;-53
2021/11/28 04:41:51;;;;;;;2.47;0.73;;;;;;;9.82;54.34;99542.81;4140592;28;20050;-48
2021/11/28 04:43:53;;;;;;;3.20;0.60;;;;;;;9.80;53.99;99536.78;4140766;28;20050;-52
2021/11/28 04:45:56;;;;;;;4.32;0.73;;;;;;;9.82;54.28;99539.31;4140749;28;20056;-51
2021/11/28 04:47:58;;;;;;;1.52;0.50;;;;;;;9.81;54.37;99540.28;4140526;28;20109;-54
2021/11/28 04:50:00;;;;;;;3.45;0.68;;;;;;;9.80;54.13;99543.81;4140781;28;20326;-51
2021/11/28 04:52:03;;;;;;;1.77;0.50;;;;;;;9.81;54.35;99540.28;4140635;28;20180;-48
2021/11/28 04:54:06;;;;;;;3.97;0.65;;;;;;;9.78;54.25;99537.78;4140665;28;20310;-54
2021/11/28 04:56:08;;;;;;;3.53;0.60;;;;;;;9.78;54.07;99535.16;4140723;28;20121;-55
2021/11/28 04:58:10;;;;;;;1.67;0.40;;;;;;;9.80;54.38;99546.44;4140330;28;20042;-51
2021/11/28 05:00:17;;;;;;;4.13;0.70;;;;;;;9.81;54.25;99542.91;4140686;28;20050;-53
2021/11/28 05:02:19;;;;;;;3.58;0.55;;;;;;;9.77;54.38;99538.72;4140227;28;20042;-55
2021/11/28 05:04:21;;;;;;;;;;;;;;;9.79;54.39;99555.25;4140887;28;20050;-50
2021/11/28 05:06:23;;;;;;;3.35;0.60;;;;;;;9.78;54.55;99546.53;4140649;28;19998;-53
2021/11/28 05:08:25;;;;;;;;;;;;;;;9.79;54.27;99553.44;4140614;28;20058;-53
2021/11/28 05:10:27;;;;;;;2.37;0.60;;;;;;;9.78;54.25;99548.28;4140331;28;19918;-51
2021/11/28 05:12:30;;;;;;;3.00;0.60;;;;;;;9.78;54.25;99554.41;4140385;28;20054;-53
2021/11/28 05:14:32;;;;;;;;;;;;;;;9.78;54.37;99556.16;4150225;28;20184;-49
2021/11/28 05:16:34;;;;;;;1.15;0.40;;;;;;;9.77;54.31;99557.09;4156745;28;20265;-52
2021/11/28 05:18:36;;;;;;;;;;;;;;;9.77;54.32;99559.72;4156551;28;20385;-52
2021/11/28 05:20:38;;;;;;;2.88;0.60;;;;;;;9.76;54.31;99556.25;4156397;28;19929;-50
2021/11/28 05:22:41;;;;;;;2.65;0.47;;;;;;;9.76;54.36;99556.25;4156424;28;20068;-53
2021/11/28 05:24:44;;;;;;;2.97;0.60;;;;;;;9.78;54.21;99564.03;4156438;28;20116;-54
2021/11/28 05:26:47;;;;;;;2.05;0.55;;;;;;;9.78;54.52;99564.03;4156393;28;20267;-51
2021/11/28 05:28:49;;;;;;;2.47;0.57;;;;;;;9.77;54.34;99559.72;4156059;28;20531;-50
2021/11/28 05:30:51;;;;;;;3.05;0.50;;;;;;;9.68;54.54;99547.91;4156232;28;20049;-51
2021/11/28 05:32:54;;;;;;;2.45;0.45;;;;;;;9.69;54.37;99550.44;4156384;28;20087;-49
2021/11/28 05:34:56;;;;;;;2.22;0.57;;;;;;;9.76;54.27;99566.75;4155075;28;20121;-53
2021/11/28 05:36:58;;;;;;;3.65;0.60;;;;;;;9.70;54.22;99556.56;4156242;28;20065;-49
2021/11/28 05:39:00;;;;;;;2.45;0.77;;;;;;;9.75;54.46;99565.06;4156007;28;20193;-53
2021/11/28 05:41:02;;;;;;;2.15;0.55;;;;;;;9.73;54.41;99567.75;4156286;28;20045;-50
2021/11/28 05:43:05;;;;;;;2.70;0.57;;;;;;;9.72;54.21;99571.31;4156190;28;20249;-50
2021/11/28 05:45:07;;;;;;;2.95;0.63;;;;;;;9.75;54.22;99583.44;4156104;28;20352;-49
2021/11/28 05:47:09;;;;;;;2.00;0.60;;;;;;;9.74;54.12;99581.72;4156252;28;20374;-49
2021/11/28 05:49:11;;;;;;;;;;;;;;;9.72;54.52;99579.19;4156345;28;20108;-51
2021/11/28 05:51:13;;;;;;;2.72;0.55;;;;;;;9.70;54.38;99573.16;4156207;28;19978;-52
2021/11/28 05:53:15;;;;;;;3.10;0.60;;;;;;;9.72;54.35;99584.44;4156098;28;20119;-50
2021/11/28 05:55:18;;;;;;;2.25;0.50;;;;;;;9.70;54.26;99574.94;4155984;28;20114;-50
2021/11/28 05:57:20;;;;;;;;;;;;;;;9.73;54.54;99591.41;4156381;28;20168;-55
2021/11/28 05:59:22;;;;;;;2.55;0.60;;;;;;;9.72;54.37;99591.44;4155735;28;19955;-53
2021/11/28 06:01:24;;;;;;;3.13;0.50;;;;;;;9.71;54.25;99587.16;4155772;28;20046;-51
2021/11/28 06:03:26;;;;;;;3.47;0.70;;;;;;;9.69;54.61;99583.75;4155698;28;20058;-54
2021/11/28 06:05:28;;;;;;;2.45;0.70;;;;;;;9.69;54.31;99605.59;4155847;28;20056;-51
2021/11/28 06:07:31;;;;;;;3.85;0.70;;;;;;;9.71;54.20;99595.88;4155758;28;20049;-54
2021/11/28 06:09:33;;;;;;;2.95;0.60;;;;;;;9.61;54.68;99586.72;4155558;28;20091;-51
2021/11/28 06:11:35;;;;;;;2.92;0.60;;;;;;;9.71;54.60;99606.38;4155801;28;20328;-51
2021/11/28 06:13:37;;;;;;;2.60;0.63;;;;;;;9.66;54.55;99597.00;4155532;28;20109;-52
2021/11/28 06:15:39;;;;;;;1.85;0.40;;;;;;;9.68;54.63;99603.88;4155387;28;20045;-53
2021/11/28 06:17:41;;;;;;;2.53;0.50;;;;;;;9.68;54.18;99603.03;4155546;28;20105;-51
2021/11/28 06:19:43;;;;;;;1.90;0.60;;;;;;;9.67;54.52;99602.22;4155642;28;20050;-52
2021/11/28 06:21:46;;;;;;;3.25;0.60;;;;;;;9.65;54.50;99604.03;4155538;28;20330;-54
2021/11/28 06:23:48;;;;;;;3.30;0.60;;;;;;;9.70;54.46;99611.69;4155705;28;20299;-51
2021/11/28 06:25:50;;;;;;;3.17;0.60;;;;;;;9.50;54.63;99576.78;4155408;28;20069;-53
2021/11/28 06:28:07;;;;;;;2.63;0.50;;;;;;;9.62;54.61;99609.44;4155576;28;20105;-50
2021/11/28 06:30:11;;;;;;;1.98;0.52;;;;;;;9.67;54.48;99607.47;4155307;28;20057;-49
2021/11/28 06:32:14;;;;;;;2.88;0.70;;;;;;;9.68;54.44;99617.00;4154711;28;20037;-51
2021/11/28 06:34:16;;;;;;;2.97;0.68;;;;;;;9.68;54.77;99621.41;4155370;28;20054;-50
2021/11/28 06:36:19;;;;;;;2.53;0.63;;;;;;;9.68;54.43;99618.78;4155455;28;20109;-52
2021/11/28 06:38:21;;;;;;;;;;;;;;;9.66;54.86;99625.88;4155772;28;20088;-50
2021/11/28 06:40:23;;;;;;;3.08;0.60;;;;;;;9.60;54.75;99613.94;4155328;28;19956;-51
2021/11/28 06:42:25;;;;;;;4.20;0.73;;;;;;;9.65;54.54;99621.56;4155343;28;20215;-51
2021/11/28 06:44:27;;;;;;;4.00;0.80;;;;;;;9.65;54.50;99622.44;4155671;28;20060;-52
2021/11/28 06:46:29;;;;;;;2.65;0.60;;;;;;;9.65;54.87;99624.19;4155220;28;20069;-55
2021/11/28 06:48:31;;;;;;;;;;;;;;;9.65;54.88;99624.19;4156018;28;20068;-52
2021/11/28 06:50:33;;;;;;;3.60;0.88;;;;;;;9.64;54.70;99631.22;4155412;28;19980;-53
2021/11/28 06:52:35;;;;;;;3.50;0.50;;;;;;;9.56;54.47;99625.50;4155371;28;20429;-53
2021/11/28 06:54:37;;;;;;;2.17;0.52;;;;;;;9.64;54.74;99633.84;4155439;28;20049;-52
2021/11/28 06:56:40;;;;;;;2.10;0.60;;;;;;;9.63;54.59;99641.81;4154997;28;20101;-50
2021/11/28 06:58:42;;;;;;;3.95;0.70;;;;;;;9.63;54.84;99641.81;4155165;28;20050;-51
2021/11/28 07:00:44;;;;;;;;;;;;;;;9.62;54.63;99640.94;4155835;28;20261;-54
2021/11/28 07:02:46;;;;;;;1.63;0.50;;;;;;;9.61;55.00;99660.22;4154976;28;19918;-53
2021/11/28 07:04:48;;;;;;;;;;;;;;;9.62;54.68;99659.31;4155767;28;20114;-52
2021/11/28 07:06:50;;;;;;;3.30;0.60;;;;;;;9.58;54.52;99658.59;4155072;28;19941;-51
2021/11/28 07:08:52;;;;;;;3.00;0.55;;;;;;;9.61;54.73;99660.22;4155134;28;20042;-55
2021/11/28 07:10:56;;;;;;;3.28;0.75;;;;;;;9.58;54.83;99663.84;4155281;28;20072;-53
2021/11/28 07:12:58;;;;;;;3.30;0.65;;;;;;;9.57;54.78;99664.81;4155174;28;20050;-50
2021/11/28 07:15:01;;;;;;;4.05;0.82;;;;;;;9.62;54.90;99669.81;4154943;28;20299;-54
2021/11/28 07:17:03;;;;;;;2.22;0.63;;;;;;;9.59;54.51;99676.06;4155128;28;20046;-52
2021/11/28 07:19:05;;;;;;;2.67;0.75;;;;;;;9.58;54.88;99673.53;4155138;28;20050;-53
2021/11/28 07:21:07;;;;;;;2.85;0.60;;;;;;;9.59;54.82;99676.06;4155188;28;20050;-53
2021/11/28 07:23:10;;;;;;;5.07;0.88;;;;;;;9.61;54.78;99677.78;4154921;28;20045;-53
2021/11/28 07:25:12;;;;;;;;;;;;;;;9.60;54.74;99682.19;4155548;28;20053;-54
2021/11/28 07:27:14;;;;;;;3.78;0.70;;;;;;;9.40;54.59;99654.25;4155080;28;20252;-55
2021/11/28 07:29:17;;;;;;;4.63;0.73;;;;;;;9.58;54.46;99684.84;4155042;28;20052;-53
2021/11/28 07:31:19;;;;;;;2.53;0.40;;;;;;;9.58;54.71;99679.63;4155210;28;20112;-53
2021/11/28 07:33:25;;;;;;;1.98;0.60;;;;;;;9.55;54.71;99687.66;4154995;28;20338;-52
2021/11/28 07:35:27;;;;;;;2.67;0.63;;;;;;;9.59;54.81;99690.97;4154975;28;20056;-50
2021/11/28 07:37:30;;;;;;;2.22;0.73;;;;;;;9.52;54.65;99682.53;4155046;28;20046;-51
2021/11/28 07:39:32;;;;;;;2.53;0.52;;;;;;;9.59;54.88;99701.47;4155105;28;20045;-51
2021/11/28 07:41:38;;;;;;;;;;;;;;;9.56;54.71;99705.09;4155472;28;20045;-51
2021/11/28 07:43:40;;;;;;;1.75;0.50;;;;;;;9.56;54.86;99706.88;4157589;28;19992;-54
2021/11/28 07:45:42;;;;;;;3.20;0.50;;;;;;;9.50;54.73;99699.28;4157954;28;20053;-53
2021/11/28 07:47:44;;;;;;;5.18;0.80;;;;;;;9.56;54.66;99712.13;4157773;28;20067;-53
2021/11/28 07:49:50;;;;;;;2.17;0.70;;;;;;;9.53;54.60;99714.91;4157748;28;20107;-52
2021/11/28 07:51:53;;;;;;;2.15;0.60;;;;;;;9.57;54.81;99721.69;4158086;28;20053;-53
2021/11/28 07:53:56;;;;;;;1.73;0.60;;;;;;;9.55;54.88;99716.53;4157647;28;20045;-51
2021/11/28 07:55:58;;;;;;;2.47;0.70;;;;;;;9.39;54.58;99686.66;4157772;28;20050;-50
2021/11/28 07:58:03;;;;;;;2.58;0.60;;;;;;;9.55;54.80;99727.03;4157596;28;20121;-54
2021/11/28 08:00:06;;;;;;;3.05;0.60;;;;;;;9.52;54.48;99719.28;4157845;28;20046;-50
2021/11/28 08:02:08;;;;;;;1.92;0.50;;;;;;;9.57;54.61;99729.56;4157463;28;20069;-51
2021/11/28 08:04:10;;;;;;;1.63;0.50;;;;;;;9.55;54.45;99734.91;4157400;28;20403;-52
2021/11/28 08:06:12;;;;;;;2.35;0.68;;;;;;;9.54;54.62;99738.44;4157646;28;20056;-51
2021/11/28 08:08:16;;;;;;;2.00;0.60;;;;;;;9.53;54.58;99735.91;4157649;28;20062;-52
2021/11/28 08:10:20;;;;;;;2.38;0.57;;;;;;;9.49;54.48;99735.19;4157565;28;20057;-52
2021/11/28 08:12:23;;;;;;;2.95;0.57;;;;;;;9.52;54.79;99742.06;4157532;28;20050;-54
2021/11/28 08:14:25;;;;;;;1.67;0.60;;;;;;;9.55;54.63;99745.41;4157163;28;20066;-50
2021/11/28 08:16:28;;;;;;;3.90;0.95;;;;;;;9.47;54.31;99736.19;4157657;28;20152;-54
2021/11/28 08:18:30;;;;;;;2.80;0.60;;;;;;;9.49;54.74;99745.69;4157553;28;20069;-51
2021/11/28 08:20:32;;;;;;;;;;;;;;;9.54;54.71;99756.81;4157678;28;20330;-51
2021/11/28 08:22:35;;;;;;;2.30;0.70;;;;;;;9.54;54.58;99756.81;4157527;28;19917;-53
2021/11/28 08:24:37;;;;;;;4.47;0.93;;;;;;;9.54;54.52;99748.94;4157142;28;20052;-51
2021/11/28 08:26:40;;;;;;;3.55;0.70;;;;;;;9.54;54.28;99761.22;4157600;28;20290;-50
2021/11/28 08:28:44;;;;;;;;;;;;;;;9.54;54.81;99762.06;4157847;28;20072;-52
2021/11/28 08:30:46;;;;;;;1.38;0.40;;;;;;;9.52;54.54;99760.44;4157254;28;19980;-52
2021/11/28 08:32:49;;;;;;;4.35;0.80;;;;;;;9.53;54.59;99762.97;4157394;28;20050;-51
2021/11/28 08:34:51;;;;;;;1.80;0.60;;;;;;;9.54;54.48;99755.97;4156820;28;20049;-55
2021/11/28 08:36:54;;;;;;;3.30;0.63;;;;;;;9.54;54.72;99763.84;4157268;28;20279;-54
2021/11/28 08:38:56;;;;;;;1.75;0.50;;;;;;;9.49;54.39;99755.31;4157034;28;20117;-50
2021/11/28 08:40:59;;;;;;;2.75;0.70;;;;;;;9.43;54.77;99745.97;4157023;28;20360;-51
2021/11/28 08:43:01;;;;;;;2.55;0.80;;;;;;;9.35;54.72;99740.22;4156834;28;20050;-49
2021/11/28 08:45:07;;;;;;;2.90;0.70;;;;;;;9.54;54.56;99771.72;4156940;28;20129;-51
2021/11/28 08:47:09;;;;;;;3.03;0.75;;;;;;;9.54;54.51;99774.34;4157089;28;20105;-51
2021/11/28 08:49:11;;;;;;;2.92;0.63;;;;;;;9.53;54.81;99775.28;4157141;28;20163;-53
2021/11/28 08:51:14;;;;;;;3.22;0.80;;;;;;;9.54;54.65;99779.59;4156942;28;20050;-51
2021/11/28 08:53:16;;;;;;;3.50;0.70;;;;;;;9.54;54.50;99776.97;4156827;28;20319;-53
2021/11/28 08:55:20;;;;;;;2.20;0.50;;;;;;;9.50;54.52;99778.03;4155880;28;20068;-53
2021/11/28 08:57:22;;;;;;;2.40;0.80;;;;;;;9.52;54.67;99782.28;4156871;28;20100;-50
2021/11/28 08:59:26;;;;;;;3.53;0.95;;;;;;;9.52;54.41;99779.66;4156867;28;20152;-49
2021/11/28 09:01:28;;;;;;;4.18;0.80;;;;;;;9.53;54.72;99777.91;4156463;28;20109;-51
2021/11/28 09:03:30;;;;;;;4.15;0.90;;;;;;;9.53;54.56;99791.03;4156642;28;20065;-49
2021/11/28 09:05:32;;;;;;;4.10;0.80;;;;;;;9.53;54.67;99794.47;4156600;28;20099;-50
2021/11/28 09:07:34;;;;;;;2.15;0.68;;;;;;;9.49;54.46;99785.06;4156727;28;20109;-54
2021/11/28 09:09:41;;;;;;;3.80;0.77;;;;;;;9.53;54.87;99797.09;4156544;28;20105;-48
2021/11/28 09:11:43;;;;;;;2.17;0.85;;;;;;;9.41;54.40;99774.91;4156535;28;20114;-51
2021/11/28 09:13:45;;;;;;;3.28;0.70;;;;;;;9.51;54.49;99788.44;4156393;28;20396;-51
2021/11/28 09:15:47;;;;;;;1.98;0.70;;;;;;;9.52;54.29;99792.78;4156420;28;20052;-49
2021/11/28 09:20:43;;;;;;;4.35;1.10;;;;;;;9.37;54.41;99791.72;4154662;28;20050;-52
2021/11/28 09:24:50;;;;;;;5.15;0.88;;;;;;;9.52;54.61;99808.53;4156468;28;20113;-50
2021/11/28 09:26:52;;;;;;;3.22;0.70;;;;;;;9.50;54.53;99806.91;4156053;28;20087;-51
2021/11/28 09:28:54;;;;;;;5.00;0.90;;;;;;;9.44;54.37;99800.16;4156287;28;20107;-52
2021/11/28 09:30:56;;;;;;;2.45;0.75;;;;;;;9.50;54.53;99815.63;4155923;28;20053;-49
2021/11/28 09:33:00;;;;;;;3.22;0.70;;;;;;;9.51;54.62;99819.94;4156288;28;20109;-51
2021/11/28 09:35:02;;;;;;;3.30;0.70;;;;;;;9.34;54.36;99791.00;4156058;28;20056;-54
2021/11/28 09:37:08;;;;;;;4.18;1.10;;;;;;;9.49;54.67;99813.94;4155935;28;20042;-53
2021/11/28 09:39:10;;;;;;;5.22;1.27;;;;;;;9.52;54.66;99828.69;4156084;28;20377;-50
2021/11/28 09:41:37;;;;;;;3.08;0.63;;;;;;;9.45;54.72;99824.63;4156021;28;20052;-50
2021/11/28 09:43:52;;;;;;;2.45;0.90;;;;;;;9.50;54.58;99836.63;4155793;28;20091;-51
2021/11/28 09:45:55;;;;;;;2.53;1.00;;;;;;;9.50;54.46;99828.75;4156135;28;20136;-53
2021/11/28 09:47:57;;;;;;;3.33;0.93;;;;;;;9.50;54.60;99839.25;4155618;28;20042;-48
2021/11/28 09:50:06;;;;;;;2.38;0.80;;;;;;;9.50;54.33;99843.66;4156006;28;20068;-50
2021/11/28 09:52:14;;;;;;;5.40;1.10;;;;;;;9.51;54.81;99837.47;4155639;28;20104;-52
2021/11/28 09:54:18;;;;;;;2.53;0.70;;;;;;;9.35;54.41;99816.31;4155948;28;20398;-53
2021/11/28 09:56:20;;;;;;;5.75;1.40;;;;;;;9.46;54.91;99832.44;4155761;28;20045;-52
2021/11/28 09:58:23;;;;;;;2.70;0.90;;;;;;;9.49;54.85;99842.81;4155562;28;20077;-51
2021/11/28 10:00:25;;;;;;;4.20;1.00;;;;;;;9.49;54.53;99849.81;4154694;28;20298;-55